TAF KBNO
AMD KBNO 080005Z 0800/0824 VRB05KT P6SM SKC FM080800 VRB03KT 1/2SM FG OVC002 FM081700 26010KT P6SM BKN040 FM082100 27015KT P6SM BKN060=
METAR KBNO
WC KBNO
WS KBNO
WV KBNO